sensor_id;sensor_type;location;lat;lon;timestamp;P1;durP1;ratioP1;P2;durP2;ratioP2
23449;SDS011;11897;45.438;12.128;2023-02-01T00:02:02;26.40;;;11.37;;
23449;SDS011;11897;45.438;12.128;2023-02-01T00:04:29;33.67;;;13.50;;
23449;SDS011;11897;45.438;12.128;2023-02-01T00:06:58;34.43;;;13.43;;
23449;SDS011;11897;45.438;12.128;2023-02-01T00:09:25;26.00;;;11.17;;
23449;SDS011;11897;45.438;12.128;2023-02-01T00:11:53;30.00;;;11.40;;
23449;SDS011;11897;45.438;12.128;2023-02-01T00:14:20;28.17;;;11.23;;
23449;SDS011;11897;45.438;12.128;2023-02-01T00:16:47;31.53;;;10.87;;
23449;SDS011;11897;45.438;12.128;2023-02-01T00:19:14;30.10;;;11.97;;
23449;SDS011;11897;45.438;12.128;2023-02-01T00:21:41;39.43;;;13.50;;
23449;SDS011;11897;45.438;12.128;2023-02-01T00:24:11;35.20;;;12.70;;
23449;SDS011;11897;45.438;12.128;2023-02-01T00:26:38;28.03;;;11.47;;
23449;SDS011;11897;45.438;12.128;2023-02-01T00:29:06;31.27;;;11.30;;
23449;SDS011;11897;45.438;12.128;2023-02-01T00:31:34;29.00;;;11.30;;
23449;SDS011;11897;45.438;12.128;2023-02-01T00:34:01;35.60;;;12.53;;
23449;SDS011;11897;45.438;12.128;2023-02-01T00:36:28;31.07;;;11.20;;
23449;SDS011;11897;45.438;12.128;2023-02-01T00:38:55;32.77;;;12.87;;
23449;SDS011;11897;45.438;12.128;2023-02-01T00:41:23;29.77;;;11.77;;
23449;SDS011;11897;45.438;12.128;2023-02-01T00:43:50;29.33;;;13.00;;
23449;SDS011;11897;45.438;12.128;2023-02-01T00:46:17;31.30;;;13.53;;
23449;SDS011;11897;45.438;12.128;2023-02-01T00:48:44;37.53;;;13.90;;
23449;SDS011;11897;45.438;12.128;2023-02-01T00:51:13;27.67;;;13.03;;
23449;SDS011;11897;45.438;12.128;2023-02-01T00:53:40;28.60;;;12.77;;
23449;SDS011;11897;45.438;12.128;2023-02-01T00:56:07;29.17;;;12.00;;
23449;SDS011;11897;45.438;12.128;2023-02-01T00:58:35;26.70;;;11.70;;
23449;SDS011;11897;45.438;12.128;2023-02-01T01:01:03;34.43;;;11.80;;
23449;SDS011;11897;45.438;12.128;2023-02-01T01:03:29;29.30;;;10.83;;
23449;SDS011;11897;45.438;12.128;2023-02-01T01:05:58;28.60;;;10.87;;
23449;SDS011;11897;45.438;12.128;2023-02-01T01:08:25;31.93;;;11.60;;
23449;SDS011;11897;45.438;12.128;2023-02-01T01:10:52;38.00;;;13.23;;
23449;SDS011;11897;45.438;12.128;2023-02-01T01:13:18;26.07;;;10.60;;
23449;SDS011;11897;45.438;12.128;2023-02-01T01:15:47;37.90;;;11.67;;
23449;SDS011;11897;45.438;12.128;2023-02-01T01:18:13;30.50;;;12.20;;
23449;SDS011;11897;45.438;12.128;2023-02-01T01:20:42;31.03;;;12.13;;
23449;SDS011;11897;45.438;12.128;2023-02-01T01:23:09;38.77;;;12.37;;
23449;SDS011;11897;45.438;12.128;2023-02-01T01:25:37;29.37;;;11.37;;
23449;SDS011;11897;45.438;12.128;2023-02-01T01:28:03;29.63;;;11.23;;
23449;SDS011;11897;45.438;12.128;2023-02-01T01:30:30;42.33;;;13.03;;
23449;SDS011;11897;45.438;12.128;2023-02-01T01:32:58;43.50;;;13.57;;
23449;SDS011;11897;45.438;12.128;2023-02-01T01:35:25;26.30;;;10.10;;
23449;SDS011;11897;45.438;12.128;2023-02-01T01:37:52;28.33;;;11.67;;
23449;SDS011;11897;45.438;12.128;2023-02-01T01:40:19;29.80;;;12.40;;
23449;SDS011;11897;45.438;12.128;2023-02-01T01:42:46;28.80;;;12.33;;
23449;SDS011;11897;45.438;12.128;2023-02-01T01:45:20;31.43;;;12.07;;
23449;SDS011;11897;45.438;12.128;2023-02-01T01:47:51;25.03;;;11.23;;
23449;SDS011;11897;45.438;12.128;2023-02-01T01:50:24;26.73;;;10.37;;
23449;SDS011;11897;45.438;12.128;2023-02-01T01:52:53;26.93;;;10.70;;
23449;SDS011;11897;45.438;12.128;2023-02-01T01:55:21;29.67;;;11.47;;
23449;SDS011;11897;45.438;12.128;2023-02-01T01:57:50;36.93;;;11.20;;
23449;SDS011;11897;45.438;12.128;2023-02-01T02:00:19;26.37;;;10.63;;
23449;SDS011;11897;45.438;12.128;2023-02-01T02:02:47;23.17;;;8.83;;
23449;SDS011;11897;45.438;12.128;2023-02-01T02:05:15;18.13;;;9.47;;
23449;SDS011;11897;45.438;12.128;2023-02-01T02:07:45;21.33;;;9.27;;
23449;SDS011;11897;45.438;12.128;2023-02-01T02:10:13;16.17;;;7.37;;
23449;SDS011;11897;45.438;12.128;2023-02-01T02:12:43;24.37;;;9.63;;
23449;SDS011;11897;45.438;12.128;2023-02-01T02:15:13;23.23;;;9.03;;
23449;SDS011;11897;45.438;12.128;2023-02-01T02:17:44;31.67;;;11.20;;
23449;SDS011;11897;45.438;12.128;2023-02-01T02:20:39;25.07;;;9.43;;
23449;SDS011;11897;45.438;12.128;2023-02-01T02:26:19;23.17;;;9.47;;
23449;SDS011;11897;45.438;12.128;2023-02-01T02:28:57;32.50;;;10.90;;
23449;SDS011;11897;45.438;12.128;2023-02-01T02:31:35;25.40;;;10.50;;
23449;SDS011;11897;45.438;12.128;2023-02-01T02:34:08;27.17;;;10.00;;
23449;SDS011;11897;45.438;12.128;2023-02-01T02:36:43;28.07;;;10.53;;
23449;SDS011;11897;45.438;12.128;2023-02-01T02:39:16;23.10;;;8.60;;
23449;SDS011;11897;45.438;12.128;2023-02-01T02:41:48;29.60;;;10.23;;
23449;SDS011;11897;45.438;12.128;2023-02-01T02:44:35;27.03;;;9.77;;
23449;SDS011;11897;45.438;12.128;2023-02-01T02:47:22;29.70;;;9.67;;
23449;SDS011;11897;45.438;12.128;2023-02-01T02:50:09;25.03;;;9.93;;
23449;SDS011;11897;45.438;12.128;2023-02-01T02:52:57;30.60;;;9.33;;
23449;SDS011;11897;45.438;12.128;2023-02-01T02:55:43;21.80;;;8.60;;
23449;SDS011;11897;45.438;12.128;2023-02-01T02:58:21;26.97;;;10.90;;
23449;SDS011;11897;45.438;12.128;2023-02-01T03:01:05;23.50;;;8.93;;
23449;SDS011;11897;45.438;12.128;2023-02-01T03:03:54;29.13;;;10.30;;
23449;SDS011;11897;45.438;12.128;2023-02-01T03:06:42;22.50;;;9.30;;
23449;SDS011;11897;45.438;12.128;2023-02-01T03:09:12;28.30;;;9.90;;
23449;SDS011;11897;45.438;12.128;2023-02-01T03:11:40;35.63;;;10.77;;
23449;SDS011;11897;45.438;12.128;2023-02-01T03:14:25;27.07;;;8.37;;
23449;SDS011;11897;45.438;12.128;2023-02-01T03:16:53;27.00;;;9.40;;
23449;SDS011;11897;45.438;12.128;2023-02-01T03:19:23;25.30;;;8.57;;
23449;SDS011;11897;45.438;12.128;2023-02-01T03:21:54;24.27;;;8.70;;
23449;SDS011;11897;45.438;12.128;2023-02-01T03:24:23;21.73;;;10.27;;
23449;SDS011;11897;45.438;12.128;2023-02-01T03:27:01;21.50;;;9.60;;
23449;SDS011;11897;45.438;12.128;2023-02-01T03:29:29;22.63;;;10.53;;
23449;SDS011;11897;45.438;12.128;2023-02-01T03:31:59;18.00;;;8.57;;
23449;SDS011;11897;45.438;12.128;2023-02-01T03:34:26;27.33;;;9.93;;
23449;SDS011;11897;45.438;12.128;2023-02-01T03:36:55;19.53;;;7.50;;
23449;SDS011;11897;45.438;12.128;2023-02-01T03:39:24;24.93;;;8.20;;
23449;SDS011;11897;45.438;12.128;2023-02-01T03:41:53;31.00;;;10.47;;
23449;SDS011;11897;45.438;12.128;2023-02-01T03:44:20;24.23;;;10.50;;
23449;SDS011;11897;45.438;12.128;2023-02-01T03:46:50;20.13;;;9.03;;
23449;SDS011;11897;45.438;12.128;2023-02-01T03:49:20;17.23;;;9.03;;
23449;SDS011;11897;45.438;12.128;2023-02-01T03:51:48;28.10;;;11.03;;
23449;SDS011;11897;45.438;12.128;2023-02-01T03:54:19;24.67;;;8.70;;
23449;SDS011;11897;45.438;12.128;2023-02-01T03:56:54;25.87;;;10.03;;
23449;SDS011;11897;45.438;12.128;2023-02-01T03:59:24;24.80;;;13.00;;
23449;SDS011;11897;45.438;12.128;2023-02-01T04:01:51;29.93;;;10.03;;
23449;SDS011;11897;45.438;12.128;2023-02-01T04:04:18;25.20;;;10.80;;
23449;SDS011;11897;45.438;12.128;2023-02-01T04:06:50;22.50;;;8.70;;
23449;SDS011;11897;45.438;12.128;2023-02-01T04:09:19;25.83;;;10.13;;
23449;SDS011;11897;45.438;12.128;2023-02-01T04:11:46;23.07;;;9.30;;
23449;SDS011;11897;45.438;12.128;2023-02-01T04:14:12;27.20;;;11.20;;
23449;SDS011;11897;45.438;12.128;2023-02-01T04:16:39;26.70;;;9.73;;
23449;SDS011;11897;45.438;12.128;2023-02-01T04:19:06;24.03;;;8.93;;
23449;SDS011;11897;45.438;12.128;2023-02-01T04:21:32;20.87;;;9.27;;
23449;SDS011;11897;45.438;12.128;2023-02-01T04:23:59;30.70;;;10.37;;
23449;SDS011;11897;45.438;12.128;2023-02-01T04:26:27;23.83;;;10.50;;
23449;SDS011;11897;45.438;12.128;2023-02-01T04:28:54;21.03;;;10.47;;
23449;SDS011;11897;45.438;12.128;2023-02-01T04:31:20;25.00;;;9.87;;
23449;SDS011;11897;45.438;12.128;2023-02-01T04:33:51;31.73;;;10.20;;
23449;SDS011;11897;45.438;12.128;2023-02-01T04:36:18;25.93;;;10.27;;
23449;SDS011;11897;45.438;12.128;2023-02-01T04:38:47;27.13;;;9.80;;
23449;SDS011;11897;45.438;12.128;2023-02-01T04:41:13;26.60;;;10.33;;
23449;SDS011;11897;45.438;12.128;2023-02-01T04:43:42;19.37;;;8.17;;
23449;SDS011;11897;45.438;12.128;2023-02-01T04:46:08;21.07;;;9.63;;
23449;SDS011;11897;45.438;12.128;2023-02-01T04:48:35;22.33;;;9.77;;
23449;SDS011;11897;45.438;12.128;2023-02-01T04:51:02;24.03;;;8.90;;
23449;SDS011;11897;45.438;12.128;2023-02-01T04:53:28;17.60;;;8.10;;
23449;SDS011;11897;45.438;12.128;2023-02-01T04:55:55;25.03;;;9.17;;
23449;SDS011;11897;45.438;12.128;2023-02-01T04:58:22;20.07;;;9.37;;
23449;SDS011;11897;45.438;12.128;2023-02-01T05:00:50;19.63;;;8.40;;
23449;SDS011;11897;45.438;12.128;2023-02-01T05:03:17;26.40;;;8.87;;
23449;SDS011;11897;45.438;12.128;2023-02-01T05:05:44;24.60;;;10.00;;
23449;SDS011;11897;45.438;12.128;2023-02-01T05:08:12;21.87;;;8.87;;
23449;SDS011;11897;45.438;12.128;2023-02-01T05:10:38;24.80;;;8.57;;
23449;SDS011;11897;45.438;12.128;2023-02-01T05:13:05;24.43;;;9.67;;
23449;SDS011;11897;45.438;12.128;2023-02-01T05:15:51;22.83;;;9.43;;
23449;SDS011;11897;45.438;12.128;2023-02-01T05:18:17;18.50;;;7.87;;
23449;SDS011;11897;45.438;12.128;2023-02-01T05:20:44;21.00;;;10.17;;
23449;SDS011;11897;45.438;12.128;2023-02-01T05:23:12;16.53;;;7.87;;
23449;SDS011;11897;45.438;12.128;2023-02-01T05:25:39;18.90;;;8.23;;
23449;SDS011;11897;45.438;12.128;2023-02-01T05:28:05;22.60;;;9.20;;
23449;SDS011;11897;45.438;12.128;2023-02-01T05:30:32;24.77;;;9.70;;
23449;SDS011;11897;45.438;12.128;2023-02-01T05:33:01;24.00;;;8.53;;
23449;SDS011;11897;45.438;12.128;2023-02-01T05:35:28;20.77;;;8.57;;
23449;SDS011;11897;45.438;12.128;2023-02-01T05:37:55;26.30;;;9.03;;
23449;SDS011;11897;45.438;12.128;2023-02-01T05:40:21;19.97;;;9.57;;
23449;SDS011;11897;45.438;12.128;2023-02-01T05:42:48;24.07;;;9.00;;
23449;SDS011;11897;45.438;12.128;2023-02-01T05:45:15;19.90;;;7.60;;
23449;SDS011;11897;45.438;12.128;2023-02-01T05:47:42;19.27;;;9.10;;
23449;SDS011;11897;45.438;12.128;2023-02-01T05:50:10;22.40;;;8.83;;
23449;SDS011;11897;45.438;12.128;2023-02-01T05:52:37;24.77;;;8.73;;
23449;SDS011;11897;45.438;12.128;2023-02-01T05:55:03;24.57;;;8.83;;
23449;SDS011;11897;45.438;12.128;2023-02-01T05:57:30;19.87;;;9.13;;
23449;SDS011;11897;45.438;12.128;2023-02-01T05:59:57;19.73;;;7.87;;
23449;SDS011;11897;45.438;12.128;2023-02-01T06:02:23;27.00;;;10.07;;
23449;SDS011;11897;45.438;12.128;2023-02-01T06:04:50;18.87;;;8.00;;
23449;SDS011;11897;45.438;12.128;2023-02-01T06:07:18;20.83;;;8.40;;
23449;SDS011;11897;45.438;12.128;2023-02-01T06:09:45;21.73;;;8.80;;
23449;SDS011;11897;45.438;12.128;2023-02-01T06:12:11;22.47;;;9.00;;
23449;SDS011;11897;45.438;12.128;2023-02-01T06:14:39;21.07;;;8.30;;
23449;SDS011;11897;45.438;12.128;2023-02-01T06:17:06;21.70;;;8.30;;
23449;SDS011;11897;45.438;12.128;2023-02-01T06:19:33;32.20;;;10.20;;
23449;SDS011;11897;45.438;12.128;2023-02-01T06:22:00;20.43;;;8.57;;
23449;SDS011;11897;45.438;12.128;2023-02-01T06:24:28;21.43;;;7.87;;
23449;SDS011;11897;45.438;12.128;2023-02-01T06:26:54;20.97;;;8.37;;
23449;SDS011;11897;45.438;12.128;2023-02-01T06:29:21;18.90;;;8.50;;
23449;SDS011;11897;45.438;12.128;2023-02-01T06:31:48;13.27;;;5.90;;
23449;SDS011;11897;45.438;12.128;2023-02-01T06:34:14;23.03;;;8.37;;
23449;SDS011;11897;45.438;12.128;2023-02-01T06:36:41;20.67;;;7.90;;
23449;SDS011;11897;45.438;12.128;2023-02-01T06:39:07;26.00;;;9.30;;
23449;SDS011;11897;45.438;12.128;2023-02-01T06:41:35;28.00;;;8.47;;
23449;SDS011;11897;45.438;12.128;2023-02-01T06:44:02;31.70;;;9.40;;
23449;SDS011;11897;45.438;12.128;2023-02-01T06:46:29;20.37;;;8.30;;
23449;SDS011;11897;45.438;12.128;2023-02-01T06:48:55;21.83;;;9.37;;
23449;SDS011;11897;45.438;12.128;2023-02-01T06:51:23;22.90;;;7.90;;
23449;SDS011;11897;45.438;12.128;2023-02-01T06:53:50;24.87;;;8.60;;
23449;SDS011;11897;45.438;12.128;2023-02-01T06:56:17;20.00;;;7.40;;
23449;SDS011;11897;45.438;12.128;2023-02-01T06:58:45;23.70;;;8.53;;
23449;SDS011;11897;45.438;12.128;2023-02-01T07:01:12;19.40;;;9.40;;
23449;SDS011;11897;45.438;12.128;2023-02-01T07:03:39;24.13;;;8.67;;
23449;SDS011;11897;45.438;12.128;2023-02-01T07:06:05;28.73;;;10.33;;
23449;SDS011;11897;45.438;12.128;2023-02-01T07:08:33;22.93;;;9.37;;
23449;SDS011;11897;45.438;12.128;2023-02-01T07:11:01;26.93;;;8.60;;
23449;SDS011;11897;45.438;12.128;2023-02-01T07:13:28;23.80;;;9.57;;
23449;SDS011;11897;45.438;12.128;2023-02-01T07:15:58;15.63;;;7.27;;
23449;SDS011;11897;45.438;12.128;2023-02-01T07:18:25;16.07;;;7.40;;
23449;SDS011;11897;45.438;12.128;2023-02-01T07:20:51;16.93;;;7.47;;
23449;SDS011;11897;45.438;12.128;2023-02-01T07:23:18;25.77;;;8.47;;
23449;SDS011;11897;45.438;12.128;2023-02-01T07:25:45;18.53;;;8.43;;
23449;SDS011;11897;45.438;12.128;2023-02-01T07:28:12;17.10;;;6.83;;
23449;SDS011;11897;45.438;12.128;2023-02-01T07:30:38;23.30;;;6.93;;
23449;SDS011;11897;45.438;12.128;2023-02-01T07:33:07;27.43;;;8.00;;
23449;SDS011;11897;45.438;12.128;2023-02-01T07:35:34;24.77;;;7.70;;
23449;SDS011;11897;45.438;12.128;2023-02-01T07:38:00;27.03;;;9.57;;
23449;SDS011;11897;45.438;12.128;2023-02-01T07:40:27;23.03;;;8.13;;
23449;SDS011;11897;45.438;12.128;2023-02-01T07:42:55;26.00;;;9.43;;
23449;SDS011;11897;45.438;12.128;2023-02-01T07:45:22;15.83;;;7.03;;
23449;SDS011;11897;45.438;12.128;2023-02-01T07:47:50;23.03;;;8.63;;
23449;SDS011;11897;45.438;12.128;2023-02-01T07:50:18;22.90;;;8.50;;
23449;SDS011;11897;45.438;12.128;2023-02-01T07:52:45;19.50;;;7.37;;
23449;SDS011;11897;45.438;12.128;2023-02-01T07:55:12;26.20;;;8.37;;
23449;SDS011;11897;45.438;12.128;2023-02-01T07:57:38;22.27;;;7.63;;
23449;SDS011;11897;45.438;12.128;2023-02-01T08:00:05;19.50;;;6.83;;
23449;SDS011;11897;45.438;12.128;2023-02-01T08:02:50;23.80;;;8.90;;
23449;SDS011;11897;45.438;12.128;2023-02-01T08:05:16;20.23;;;7.33;;
23449;SDS011;11897;45.438;12.128;2023-02-01T08:07:44;18.87;;;8.60;;
23449;SDS011;11897;45.438;12.128;2023-02-01T08:10:16;17.80;;;7.97;;
23449;SDS011;11897;45.438;12.128;2023-02-01T08:12:46;26.43;;;9.27;;
23449;SDS011;11897;45.438;12.128;2023-02-01T08:15:14;25.10;;;9.23;;
23449;SDS011;11897;45.438;12.128;2023-02-01T08:17:45;22.17;;;8.00;;
23449;SDS011;11897;45.438;12.128;2023-02-01T08:20:12;21.53;;;7.83;;
23449;SDS011;11897;45.438;12.128;2023-02-01T08:22:39;22.17;;;7.57;;
23449;SDS011;11897;45.438;12.128;2023-02-01T08:25:08;24.40;;;8.50;;
23449;SDS011;11897;45.438;12.128;2023-02-01T08:27:35;23.67;;;9.23;;
23449;SDS011;11897;45.438;12.128;2023-02-01T08:30:02;19.13;;;7.23;;
23449;SDS011;11897;45.438;12.128;2023-02-01T08:32:29;13.27;;;5.77;;
23449;SDS011;11897;45.438;12.128;2023-02-01T08:34:55;21.67;;;8.30;;
23449;SDS011;11897;45.438;12.128;2023-02-01T08:37:22;22.30;;;7.67;;
23449;SDS011;11897;45.438;12.128;2023-02-01T08:39:48;17.13;;;8.20;;
23449;SDS011;11897;45.438;12.128;2023-02-01T08:42:17;17.37;;;6.93;;
23449;SDS011;11897;45.438;12.128;2023-02-01T08:45:03;20.77;;;8.47;;
23449;SDS011;11897;45.438;12.128;2023-02-01T08:47:30;23.83;;;8.03;;
23449;SDS011;11897;45.438;12.128;2023-02-01T08:49:57;31.97;;;9.37;;
23449;SDS011;11897;45.438;12.128;2023-02-01T08:52:24;22.93;;;8.77;;
23449;SDS011;11897;45.438;12.128;2023-02-01T08:54:50;22.73;;;8.13;;
23449;SDS011;11897;45.438;12.128;2023-02-01T08:57:19;29.53;;;9.83;;
23449;SDS011;11897;45.438;12.128;2023-02-01T08:59:45;25.33;;;9.30;;
23449;SDS011;11897;45.438;12.128;2023-02-01T09:02:12;15.63;;;8.03;;
23449;SDS011;11897;45.438;12.128;2023-02-01T09:04:39;25.27;;;8.93;;
23449;SDS011;11897;45.438;12.128;2023-02-01T09:07:06;18.53;;;7.47;;
23449;SDS011;11897;45.438;12.128;2023-02-01T09:09:33;23.50;;;8.17;;
23449;SDS011;11897;45.438;12.128;2023-02-01T09:11:59;15.93;;;8.20;;
23449;SDS011;11897;45.438;12.128;2023-02-01T09:14:27;19.23;;;6.90;;
23449;SDS011;11897;45.438;12.128;2023-02-01T09:16:54;22.70;;;7.87;;
23449;SDS011;11897;45.438;12.128;2023-02-01T09:19:21;20.60;;;7.83;;
23449;SDS011;11897;45.438;12.128;2023-02-01T09:21:47;21.90;;;7.03;;
23449;SDS011;11897;45.438;12.128;2023-02-01T09:24:14;21.00;;;6.77;;
23449;SDS011;11897;45.438;12.128;2023-02-01T09:26:41;21.07;;;7.63;;
23449;SDS011;11897;45.438;12.128;2023-02-01T09:29:07;16.33;;;7.27;;
23449;SDS011;11897;45.438;12.128;2023-02-01T09:31:37;21.07;;;6.83;;
23449;SDS011;11897;45.438;12.128;2023-02-01T09:34:04;19.43;;;7.27;;
23449;SDS011;11897;45.438;12.128;2023-02-01T09:36:31;17.93;;;7.53;;
23449;SDS011;11897;45.438;12.128;2023-02-01T09:38:58;17.30;;;7.63;;
23449;SDS011;11897;45.438;12.128;2023-02-01T09:41:36;17.17;;;6.43;;
23449;SDS011;11897;45.438;12.128;2023-02-01T09:44:06;24.17;;;8.87;;
23449;SDS011;11897;45.438;12.128;2023-02-01T09:46:34;17.80;;;7.07;;
23449;SDS011;11897;45.438;12.128;2023-02-01T09:49:03;15.07;;;6.23;;
23449;SDS011;11897;45.438;12.128;2023-02-01T09:51:32;14.30;;;6.80;;
23449;SDS011;11897;45.438;12.128;2023-02-01T09:54:02;17.17;;;5.87;;
23449;SDS011;11897;45.438;12.128;2023-02-01T09:56:32;16.60;;;6.93;;
23449;SDS011;11897;45.438;12.128;2023-02-01T09:59:02;13.47;;;5.90;;
23449;SDS011;11897;45.438;12.128;2023-02-01T10:01:30;14.20;;;6.57;;
23449;SDS011;11897;45.438;12.128;2023-02-01T10:03:58;18.53;;;6.63;;
23449;SDS011;11897;45.438;12.128;2023-02-01T10:06:33;14.77;;;7.40;;
23449;SDS011;11897;45.438;12.128;2023-02-01T10:11:46;15.43;;;6.73;;
23449;SDS011;11897;45.438;12.128;2023-02-01T10:14:20;16.57;;;6.80;;
23449;SDS011;11897;45.438;12.128;2023-02-01T10:16:55;17.93;;;7.43;;
23449;SDS011;11897;45.438;12.128;2023-02-01T10:19:27;21.50;;;8.20;;
23449;SDS011;11897;45.438;12.128;2023-02-01T10:22:01;16.83;;;6.97;;
23449;SDS011;11897;45.438;12.128;2023-02-01T10:24:34;14.47;;;6.70;;
23449;SDS011;11897;45.438;12.128;2023-02-01T10:27:06;18.33;;;7.33;;
23449;SDS011;11897;45.438;12.128;2023-02-01T10:29:36;17.73;;;6.83;;
23449;SDS011;11897;45.438;12.128;2023-02-01T10:32:07;16.90;;;7.20;;
23449;SDS011;11897;45.438;12.128;2023-02-01T10:34:36;19.40;;;6.30;;
23449;SDS011;11897;45.438;12.128;2023-02-01T10:37:10;17.43;;;7.10;;
23449;SDS011;11897;45.438;12.128;2023-02-01T10:39:44;16.47;;;6.70;;
23449;SDS011;11897;45.438;12.128;2023-02-01T10:42:11;18.03;;;7.50;;
23449;SDS011;11897;45.438;12.128;2023-02-01T10:44:39;12.83;;;6.70;;
23449;SDS011;11897;45.438;12.128;2023-02-01T10:47:08;15.53;;;6.27;;
23449;SDS011;11897;45.438;12.128;2023-02-01T10:49:37;16.23;;;6.80;;
23449;SDS011;11897;45.438;12.128;2023-02-01T10:52:05;16.70;;;6.83;;
23449;SDS011;11897;45.438;12.128;2023-02-01T10:54:38;15.53;;;6.53;;
23449;SDS011;11897;45.438;12.128;2023-02-01T10:57:07;14.93;;;6.63;;
23449;SDS011;11897;45.438;12.128;2023-02-01T10:59:33;14.97;;;5.77;;
23449;SDS011;11897;45.438;12.128;2023-02-01T11:02:02;16.90;;;6.30;;
23449;SDS011;11897;45.438;12.128;2023-02-01T11:04:33;17.80;;;6.17;;
23449;SDS011;11897;45.438;12.128;2023-02-01T11:07:05;14.00;;;6.20;;
23449;SDS011;11897;45.438;12.128;2023-02-01T11:09:34;16.23;;;6.20;;
23449;SDS011;11897;45.438;12.128;2023-02-01T11:12:10;16.63;;;6.87;;
23449;SDS011;11897;45.438;12.128;2023-02-01T11:14:46;13.07;;;6.43;;
23449;SDS011;11897;45.438;12.128;2023-02-01T11:17:26;11.63;;;5.67;;
23449;SDS011;11897;45.438;12.128;2023-02-01T11:19:57;20.63;;;7.00;;
23449;SDS011;11897;45.438;12.128;2023-02-01T11:22:25;18.10;;;6.83;;
23449;SDS011;11897;45.438;12.128;2023-02-01T11:24:52;12.17;;;6.03;;
23449;SDS011;11897;45.438;12.128;2023-02-01T11:27:21;11.97;;;6.63;;
23449;SDS011;11897;45.438;12.128;2023-02-01T11:29:49;17.30;;;7.10;;
23449;SDS011;11897;45.438;12.128;2023-02-01T11:32:17;16.23;;;6.80;;
23449;SDS011;11897;45.438;12.128;2023-02-01T11:34:45;17.60;;;6.93;;
23449;SDS011;11897;45.438;12.128;2023-02-01T11:37:14;16.90;;;6.97;;
23449;SDS011;11897;45.438;12.128;2023-02-01T11:39:42;16.90;;;7.37;;
23449;SDS011;11897;45.438;12.128;2023-02-01T11:42:12;19.70;;;6.93;;
23449;SDS011;11897;45.438;12.128;2023-02-01T11:44:41;18.43;;;7.20;;
23449;SDS011;11897;45.438;12.128;2023-02-01T11:47:21;22.10;;;6.77;;
23449;SDS011;11897;45.438;12.128;2023-02-01T11:49:49;15.70;;;7.30;;
23449;SDS011;11897;45.438;12.128;2023-02-01T11:52:18;16.97;;;6.27;;
23449;SDS011;11897;45.438;12.128;2023-02-01T11:54:55;19.60;;;7.50;;
23449;SDS011;11897;45.438;12.128;2023-02-01T11:57:29;18.07;;;6.97;;
23449;SDS011;11897;45.438;12.128;2023-02-01T12:00:06;17.90;;;7.63;;
23449;SDS011;11897;45.438;12.128;2023-02-01T12:05:26;15.77;;;7.30;;
23449;SDS011;11897;45.438;12.128;2023-02-01T12:08:01;13.77;;;6.27;;
23449;SDS011;11897;45.438;12.128;2023-02-01T12:10:31;21.87;;;8.10;;
23449;SDS011;11897;45.438;12.128;2023-02-01T12:13:01;15.87;;;6.90;;
23449;SDS011;11897;45.438;12.128;2023-02-01T12:15:40;16.27;;;6.83;;
23449;SDS011;11897;45.438;12.128;2023-02-01T12:20:57;18.03;;;6.87;;
23449;SDS011;11897;45.438;12.128;2023-02-01T12:23:30;18.80;;;6.63;;
23449;SDS011;11897;45.438;12.128;2023-02-01T12:26:05;19.80;;;6.63;;
23449;SDS011;11897;45.438;12.128;2023-02-01T12:28:44;22.00;;;8.23;;
23449;SDS011;11897;45.438;12.128;2023-02-01T12:31:24;21.30;;;6.37;;
23449;SDS011;11897;45.438;12.128;2023-02-01T12:34:04;15.23;;;6.87;;
23449;SDS011;11897;45.438;12.128;2023-02-01T12:36:36;19.27;;;6.90;;
23449;SDS011;11897;45.438;12.128;2023-02-01T12:39:21;19.63;;;7.17;;
23449;SDS011;11897;45.438;12.128;2023-02-01T12:41:50;34.73;;;6.73;;
23449;SDS011;11897;45.438;12.128;2023-02-01T12:47:06;21.00;;;8.03;;
23449;SDS011;11897;45.438;12.128;2023-02-01T12:49:40;18.97;;;8.70;;
23449;SDS011;11897;45.438;12.128;2023-02-01T12:52:10;18.27;;;8.63;;
23449;SDS011;11897;45.438;12.128;2023-02-01T12:54:38;21.67;;;9.93;;
23449;SDS011;11897;45.438;12.128;2023-02-01T12:57:11;21.10;;;7.77;;
23449;SDS011;11897;45.438;12.128;2023-02-01T12:59:38;19.77;;;7.60;;
23449;SDS011;11897;45.438;12.128;2023-02-01T13:02:09;24.17;;;9.23;;
23449;SDS011;11897;45.438;12.128;2023-02-01T13:04:42;17.53;;;7.70;;
23449;SDS011;11897;45.438;12.128;2023-02-01T13:07:12;22.87;;;8.93;;
23449;SDS011;11897;45.438;12.128;2023-02-01T13:09:41;17.60;;;8.73;;
23449;SDS011;11897;45.438;12.128;2023-02-01T13:12:12;23.67;;;7.93;;
23449;SDS011;11897;45.438;12.128;2023-02-01T13:14:41;16.13;;;7.43;;
23449;SDS011;11897;45.438;12.128;2023-02-01T13:17:18;14.17;;;6.67;;
23449;SDS011;11897;45.438;12.128;2023-02-01T13:19:48;20.10;;;8.17;;
23449;SDS011;11897;45.438;12.128;2023-02-01T13:22:21;18.07;;;7.67;;
23449;SDS011;11897;45.438;12.128;2023-02-01T13:24:51;19.77;;;8.07;;
23449;SDS011;11897;45.438;12.128;2023-02-01T13:27:19;16.17;;;6.53;;
23449;SDS011;11897;45.438;12.128;2023-02-01T13:29:48;17.20;;;7.53;;
23449;SDS011;11897;45.438;12.128;2023-02-01T13:32:23;21.40;;;8.43;;
23449;SDS011;11897;45.438;12.128;2023-02-01T13:35:03;29.13;;;8.93;;
23449;SDS011;11897;45.438;12.128;2023-02-01T13:37:41;15.53;;;7.43;;
23449;SDS011;11897;45.438;12.128;2023-02-01T13:40:17;22.33;;;9.77;;
23449;SDS011;11897;45.438;12.128;2023-02-01T13:42:48;20.93;;;8.63;;
23449;SDS011;11897;45.438;12.128;2023-02-01T13:45:16;20.43;;;6.90;;
23449;SDS011;11897;45.438;12.128;2023-02-01T13:47:46;21.47;;;7.60;;
23449;SDS011;11897;45.438;12.128;2023-02-01T13:50:19;24.90;;;9.43;;
23449;SDS011;11897;45.438;12.128;2023-02-01T13:52:50;20.87;;;8.47;;
23449;SDS011;11897;45.438;12.128;2023-02-01T13:55:26;24.07;;;8.60;;
23449;SDS011;11897;45.438;12.128;2023-02-01T13:57:59;19.97;;;8.57;;
23449;SDS011;11897;45.438;12.128;2023-02-01T14:00:27;19.33;;;7.93;;
23449;SDS011;11897;45.438;12.128;2023-02-01T14:03:06;15.97;;;8.43;;
23449;SDS011;11897;45.438;12.128;2023-02-01T14:08:22;17.87;;;7.93;;
23449;SDS011;11897;45.438;12.128;2023-02-01T14:10:50;20.10;;;8.73;;
23449;SDS011;11897;45.438;12.128;2023-02-01T14:13:25;19.27;;;8.00;;
23449;SDS011;11897;45.438;12.128;2023-02-01T14:21:24;19.00;;;7.60;;
23449;SDS011;11897;45.438;12.128;2023-02-01T14:23:55;19.80;;;8.53;;
23449;SDS011;11897;45.438;12.128;2023-02-01T14:26:24;16.70;;;7.50;;
23449;SDS011;11897;45.438;12.128;2023-02-01T14:29:01;18.37;;;7.63;;
23449;SDS011;11897;45.438;12.128;2023-02-01T14:31:34;14.63;;;6.77;;
23449;SDS011;11897;45.438;12.128;2023-02-01T14:34:02;16.67;;;7.23;;
23449;SDS011;11897;45.438;12.128;2023-02-01T14:36:44;18.63;;;8.03;;
23449;SDS011;11897;45.438;12.128;2023-02-01T14:39:25;23.03;;;7.60;;
23449;SDS011;11897;45.438;12.128;2023-02-01T14:41:53;18.40;;;7.23;;
23449;SDS011;11897;45.438;12.128;2023-02-01T14:44:27;16.90;;;6.70;;
23449;SDS011;11897;45.438;12.128;2023-02-01T14:47:04;20.20;;;8.07;;
23449;SDS011;11897;45.438;12.128;2023-02-01T14:49:32;14.20;;;7.13;;
23449;SDS011;11897;45.438;12.128;2023-02-01T14:52:08;15.80;;;7.77;;
23449;SDS011;11897;45.438;12.128;2023-02-01T14:54:37;20.70;;;8.67;;
23449;SDS011;11897;45.438;12.128;2023-02-01T14:57:08;19.87;;;8.13;;